Terminal Aerodrome Forecast
Issued by NWS Pueblo, CO

Home | Current Version | Previous Version | Text Only | Print | Product List | Glossary On
Versions: 1 2 3 4 5 6 7 8 9 10 11 12 13 14 15 16 17 18 19 20 21 22 23 24 25 26 27
000
FTUS45 KPUB 270230 AAB
TAFPUB
TAF AMD
KPUB 270230Z 2703/2724 35012G22KT P6SM VCSH SCT090 BKN150
     FM270600 30010KT P6SM SCT090 BKN150
     FM271100 32012KT P6SM VCSH OVC050
     FM271500 35015G25KT P6SM SCT050 BKN080
     FM272000 36020G35KT P6SM BKN100=

USA.gov is the U.S. government's official web portal to all federal, state and local government web resources and services.